Time;durP1;ratioP1;P1;durP2;ratioP2;P2;SDS_P1;SDS_P2;PMS_P1;PMS_P2;Temp;Humidity;BMP_temperature;BMP_pressure;BME280_temperature;BME280_humidity;BME280_pressure;Samples;Min_cycle;Max_cycle;Signal;HPM_P1;HPM_P2
2021/12/05 00:22:40;;;;;;;7.57;4.73;;;8.70;99.90;;;;;;4918442;29;20407;-68
2021/12/05 00:25:09;;;;;;;8.43;4.73;;;8.70;99.90;;;;;;4918662;29;20450;-66
2021/12/05 00:27:46;;;;;;;5.53;5.03;;;8.70;99.90;;;;;;4917621;29;20418;-67
2021/12/05 00:36:49;;;;;;;5.23;4.40;;;8.70;99.90;;;;;;4879988;29;20424;-67
2021/12/05 01:04:44;;;;;;;5.77;4.50;;;8.60;99.90;;;;;;4898282;29;20466;-67
2021/12/05 01:15:20;;;;;;;6.87;4.30;;;8.60;99.80;;;;;;4898860;29;20462;-67
2021/12/05 01:18:02;;;;;;;6.80;4.73;;;8.60;99.90;;;;;;4897912;29;20425;-67
2021/12/05 01:20:38;;;;;;;7.70;4.67;;;8.60;99.90;;;;;;4898305;29;20798;-67
2021/12/05 01:23:12;;;;;;;7.70;5.13;;;8.50;99.90;;;;;;4898408;29;20407;-67
2021/12/05 01:26:04;;;;;;;6.57;5.67;;;8.30;99.90;;;;;;4897788;29;20739;-67
2021/12/05 01:31:21;;;;;;;7.10;5.30;;;8.40;99.90;;;;;;4868830;29;20451;-67
2021/12/05 01:44:32;;;;;;;6.57;5.23;;;8.40;99.90;;;;;;4898123;29;20828;-67
2021/12/05 02:11:25;;;;;;;5.00;4.10;;;8.50;99.90;;;;;;4896866;29;20453;-67
2021/12/05 02:29:27;;;;;;;4.00;3.70;;;8.50;99.90;;;;;;4878609;29;20409;-67
2021/12/05 02:31:05;;;;;;;5.00;4.17;;;8.60;99.90;;;;;;4880748;29;20416;-67
2021/12/05 02:39:25;;;;;;;7.83;3.87;;;8.70;99.80;;;;;;4896558;29;20459;-67
2021/12/05 02:41:44;;;;;;;6.57;3.70;;;8.70;99.80;;;;;;4895633;29;20498;-67
2021/12/05 02:46:49;;;;;;;7.63;4.27;;;8.50;99.60;;;;;;4896362;29;20403;-67
2021/12/05 02:49:16;;;;;;;4.00;3.40;;;8.50;99.80;;;;;;4897209;29;20436;-67
2021/12/05 02:51:51;;;;;;;3.80;3.50;;;8.60;99.90;;;;;;4896206;29;20427;-67
2021/12/05 02:54:18;;;;;;;6.10;4.30;;;8.50;99.90;;;;;;4897201;29;20403;-67
2021/12/05 02:56:49;;;;;;;3.70;3.40;;;8.50;99.90;;;;;;4895839;29;20482;-67
2021/12/05 02:59:59;;;;;;;4.20;3.80;;;8.50;99.80;;;;;;4897126;29;20396;-67
2021/12/05 03:02:13;;;;;;;5.07;3.93;;;8.60;99.80;;;;;;4893401;29;20445;-67
2021/12/05 03:04:44;;;;;;;3.60;3.40;;;8.60;99.80;;;;;;4896500;29;20513;-68
2021/12/05 03:07:11;;;;;;;3.67;3.37;;;8.50;99.60;;;;;;4897336;29;20396;-67
2021/12/05 03:09:40;;;;;;;6.37;4.10;;;8.40;99.90;;;;;;4896717;29;20431;-68
2021/12/05 03:12:11;;;;;;;3.77;3.53;;;8.30;99.90;;;;;;4896975;29;20542;-67
2021/12/05 03:14:37;;;;;;;4.00;3.60;;;8.20;99.90;;;;;;4896868;29;20438;-67
2021/12/05 03:17:04;;;;;;;6.80;4.43;;;8.30;99.90;;;;;;4896621;29;20458;-67
2021/12/05 03:19:30;;;;;;;4.87;3.50;;;8.30;99.90;;;;;;4896690;29;20889;-67
2021/12/05 03:21:56;;;;;;;8.30;4.10;;;8.30;99.90;;;;;;4895720;29;20451;-67
2021/12/05 03:24:23;;;;;;;5.40;3.77;;;8.30;99.90;;;;;;4896857;29;20471;-67
2021/12/05 03:26:51;;;;;;;7.70;3.77;;;8.20;99.90;;;;;;4896147;29;20191;-67
2021/12/05 03:29:18;;;;;;;4.20;3.77;;;8.20;99.90;;;;;;4879956;29;20420;-67
2021/12/05 03:31:46;;;;;;;4.53;4.13;;;8.00;99.90;;;;;;4896126;29;20394;-67
2021/12/05 03:34:14;;;;;;;4.60;4.20;;;8.10;99.90;;;;;;4900031;29;20450;-67
2021/12/05 03:36:44;;;;;;;4.33;3.90;;;8.00;99.90;;;;;;4899677;29;20411;-67
2021/12/05 03:39:10;;;;;;;9.73;4.13;;;8.10;99.90;;;;;;4900508;29;20510;-67
2021/12/05 03:41:38;;;;;;;8.20;4.20;;;8.20;99.90;;;;;;4914459;29;20458;-67
2021/12/05 03:44:06;;;;;;;6.23;4.00;;;8.10;99.90;;;;;;4899645;29;20490;-67
2021/12/05 03:46:32;;;;;;;5.40;3.63;;;8.10;99.90;;;;;;4900198;29;20415;-67
2021/12/05 03:49:03;;;;;;;8.97;4.17;;;8.20;99.90;;;;;;4899467;29;20521;-67
2021/12/05 03:51:32;;;;;;;7.10;3.90;;;8.10;99.90;;;;;;4900272;29;20883;-67
2021/12/05 03:53:58;;;;;;;4.77;4.27;;;8.20;99.90;;;;;;4899310;29;20844;-67
2021/12/05 03:56:24;;;;;;;4.70;4.00;;;8.20;99.90;;;;;;4899972;29;20465;-67
2021/12/05 03:58:51;;;;;;;6.00;3.90;;;8.20;99.90;;;;;;4899283;29;20446;-67
2021/12/05 04:01:18;;;;;;;7.70;5.20;;;8.20;99.90;;;;;;4900165;29;20414;-67
2021/12/05 04:03:47;;;;;;;4.47;4.07;;;8.20;99.90;;;;;;4898682;29;20493;-67
2021/12/05 04:06:15;;;;;;;6.53;4.70;;;8.30;99.90;;;;;;4899897;29;20542;-67
2021/12/05 04:08:41;;;;;;;5.00;4.03;;;8.30;99.90;;;;;;4899443;29;20994;-67
2021/12/05 04:11:12;;;;;;;11.50;3.43;;;8.30;99.90;;;;;;4899518;29;20914;-67
2021/12/05 04:13:38;;;;;;;5.37;3.70;;;8.40;99.90;;;;;;4899784;29;20758;-67
2021/12/05 04:16:06;;;;;;;3.93;3.30;;;8.40;99.70;;;;;;4898681;29;20427;-67
2021/12/05 04:18:33;;;;;;;5.00;3.77;;;8.40;99.50;;;;;;4899495;29;20490;-67
2021/12/05 04:20:59;;;;;;;6.33;3.40;;;8.40;99.80;;;;;;4898935;29;20426;-67
2021/12/05 04:23:27;;;;;;;4.17;3.80;;;8.50;99.70;;;;;;4899560;29;20462;-67
2021/12/05 04:25:53;;;;;;;3.57;3.27;;;8.50;99.40;;;;;;4898828;29;20434;-67
2021/12/05 04:28:21;;;;;;;6.03;3.07;;;8.50;99.30;;;;;;4899295;29;20423;-67
2021/12/05 04:30:47;;;;;;;4.17;3.33;;;8.60;99.20;;;;;;4898722;29;20415;-67
2021/12/05 04:33:12;;;;;;;3.83;3.10;;;8.50;98.80;;;;;;4899046;29;20431;-67
2021/12/05 04:35:38;;;;;;;6.00;3.37;;;8.50;99.00;;;;;;4899424;29;20420;-67
2021/12/05 04:38:04;;;;;;;4.83;2.97;;;8.60;98.90;;;;;;4897917;29;20256;-67
2021/12/05 04:40:32;;;;;;;3.10;2.80;;;8.50;98.80;;;;;;4899255;29;20896;-67
2021/12/05 04:42:59;;;;;;;5.10;3.70;;;8.50;98.70;;;;;;4898327;29;20595;-67
2021/12/05 04:45:28;;;;;;;5.43;3.27;;;8.40;98.70;;;;;;4899102;29;20610;-67
2021/12/05 04:47:55;;;;;;;2.83;2.43;;;8.50;98.80;;;;;;4898369;29;20420;-67
2021/12/05 04:50:22;;;;;;;4.67;3.00;;;8.50;98.90;;;;;;4899131;29;20419;-67
2021/12/05 04:52:48;;;;;;;7.50;3.57;;;8.50;98.80;;;;;;4898052;29;20427;-67
2021/12/05 04:55:16;;;;;;;4.33;2.77;;;8.60;98.60;;;;;;4899064;29;20423;-67
2021/12/05 04:57:43;;;;;;;3.00;2.00;;;8.50;98.60;;;;;;4899022;29;20887;-67
2021/12/05 05:00:19;;;;;;;4.50;2.40;;;8.50;98.70;;;;;;4898411;29;20507;-67
2021/12/05 05:02:45;;;;;;;3.43;2.20;;;8.50;98.60;;;;;;4898278;29;20486;-67
2021/12/05 05:05:12;;;;;;;3.40;2.40;;;8.60;98.30;;;;;;4898566;29;20467;-67
2021/12/05 05:07:40;;;;;;;5.13;2.43;;;8.50;98.40;;;;;;4898627;29;20560;-67
2021/12/05 05:10:20;;;;;;;6.80;2.67;;;8.50;98.40;;;;;;4897937;29;20722;-67
2021/12/05 05:12:46;;;;;;;3.93;2.80;;;8.60;98.40;;;;;;4898180;29;20419;-67
2021/12/05 05:15:14;;;;;;;5.33;2.43;;;8.70;98.20;;;;;;4898643;29;20534;-67
2021/12/05 05:17:40;;;;;;;3.37;2.30;;;8.60;98.00;;;;;;4882014;29;20419;-67
2021/12/05 05:20:27;;;;;;;4.00;2.30;;;8.60;98.10;;;;;;4897841;29;20471;-67
2021/12/05 05:46:57;;;;;;;3.80;3.50;;;8.20;97.90;;;;;;4879803;29;20408;-67
2021/12/05 05:49:33;;;;;;;5.10;3.33;;;8.20;97.70;;;;;;4879265;29;20432;-67
2021/12/05 05:51:59;;;;;;;4.50;3.00;;;8.20;97.80;;;;;;4878916;29;20825;-67
2021/12/05 05:54:25;;;;;;;3.03;2.67;;;8.10;97.50;;;;;;4879298;29;20428;-67
2021/12/05 05:56:57;;;;;;;3.60;3.30;;;8.10;97.70;;;;;;4879867;29;20446;-67
2021/12/05 05:59:27;;;;;;;3.87;2.80;;;8.10;97.70;;;;;;4897964;29;20415;-67
2021/12/05 06:04:20;;;;;;;4.97;3.90;;;7.90;98.00;;;;;;4897973;29;20470;-67
2021/12/05 06:06:46;;;;;;;8.30;3.73;;;7.80;98.50;;;;;;4897420;29;20506;-67
2021/12/05 06:09:12;;;;;;;7.07;3.40;;;7.70;98.00;;;;;;4897049;29;20419;-67
2021/12/05 06:11:38;;;;;;;7.43;3.27;;;7.70;98.10;;;;;;4897735;29;20415;-67
2021/12/05 06:14:04;;;;;;;3.80;2.93;;;7.70;98.20;;;;;;4896913;29;20182;-67
2021/12/05 06:16:30;;;;;;;5.90;3.20;;;7.70;98.00;;;;;;4897603;29;20801;-67
2021/12/05 06:18:56;;;;;;;3.17;2.83;;;7.70;98.00;;;;;;4896431;29;20438;-67
2021/12/05 06:21:21;;;;;;;5.23;3.40;;;7.60;97.70;;;;;;4897847;29;20416;-67
2021/12/05 06:23:48;;;;;;;3.50;2.97;;;7.50;98.10;;;;;;4897500;29;20206;-67
2021/12/05 06:26:20;;;;;;;9.10;3.20;;;7.60;98.30;;;;;;4896987;29;20189;-67
2021/12/05 06:28:57;;;;;;;4.50;2.50;;;7.60;98.00;;;;;;4897503;29;20419;-67
2021/12/05 06:31:54;;;;;;;4.43;2.90;;;7.80;97.90;;;;;;4897267;29;20424;-67
2021/12/05 06:47:45;;;;;;;2.80;2.50;;;7.90;97.20;;;;;;4897353;29;20395;-67
2021/12/05 06:50:10;;;;;;;2.33;2.13;;;7.90;97.20;;;;;;4896183;29;20587;-67
2021/12/05 06:52:36;;;;;;;3.67;2.40;;;7.90;97.00;;;;;;4880052;29;20455;-67
2021/12/05 06:55:02;;;;;;;5.80;2.20;;;8.00;97.00;;;;;;4879437;29;20182;-67
2021/12/05 06:57:28;;;;;;;3.13;2.27;;;8.00;96.90;;;;;;4897127;29;20183;-67
2021/12/05 06:59:54;;;;;;;5.20;2.70;;;8.00;96.70;;;;;;4895962;29;20429;-67
2021/12/05 07:02:20;;;;;;;9.40;3.53;;;8.00;96.90;;;;;;4896767;29;20588;-67
2021/12/05 07:05:15;;;;;;;3.20;2.27;;;7.90;96.70;;;;;;4896919;29;20463;-67
2021/12/05 07:07:36;;;;;;;2.60;2.40;;;7.90;96.90;;;;;;4897875;29;20923;-67
2021/12/05 07:10:04;;;;;;;5.60;2.17;;;7.90;97.10;;;;;;4899612;29;20870;-67
2021/12/05 07:22:48;;;;;;;2.40;2.30;;;7.60;97.70;;;;;;4899735;29;20752;-67
2021/12/05 07:25:28;;;;;;;3.13;2.93;;;7.60;97.50;;;;;;4899242;29;20454;-67
2021/12/05 07:44:02;;;;;;;2.70;2.50;;;7.70;97.90;;;;;;4900078;29;20765;-67
2021/12/05 07:46:28;;;;;;;3.10;2.70;;;7.80;97.60;;;;;;4900763;29;20238;-67
2021/12/05 07:48:54;;;;;;;5.10;3.57;;;7.80;97.50;;;;;;4898552;29;20542;-68
2021/12/05 07:54:18;;;;;;;2.50;2.30;;;7.80;97.10;;;;;;4899094;29;20182;-67
2021/12/05 07:56:45;;;;;;;4.60;2.97;;;7.80;97.90;;;;;;4894564;29;20330;-67
2021/12/05 08:15:45;;;;;;;2.63;2.40;;;8.50;99.90;;;;;;4898808;29;20423;-68
2021/12/05 08:18:11;;;;;;;3.10;2.60;;;8.70;98.70;;;;;;4897877;29;20788;-68
2021/12/05 08:20:40;;;;;;;4.33;3.47;;;9.00;98.20;;;;;;4899227;29;20446;-67
2021/12/05 08:23:06;;;;;;;5.00;2.93;;;9.30;96.70;;;;;;4882341;29;20183;-68
2021/12/05 08:25:36;;;;;;;2.97;2.77;;;9.60;96.90;;;;;;4900011;29;20413;-68
2021/12/05 08:28:22;;;;;;;3.80;3.00;;;9.90;95.20;;;;;;4899341;29;20453;-68
2021/12/05 08:30:58;;;;;;;3.27;2.77;;;10.20;94.80;;;;;;4899970;29;20422;-69
2021/12/05 08:33:43;;;;;;;4.70;3.60;;;10.60;93.70;;;;;;4900034;29;20433;-68
2021/12/05 09:27:44;;;;;;;1.97;1.80;;;12.00;89.00;;;;;;4879364;29;20774;-68
2021/12/05 10:11:06;;;;;;;4.17;2.80;;;12.50;82.20;;;;;;4897890;29;20416;-67
2021/12/05 10:13:54;;;;;;;3.20;2.60;;;12.30;83.20;;;;;;4898110;29;20418;-68
2021/12/05 10:17:04;;;;;;;2.77;2.57;;;12.30;84.00;;;;;;4897480;29;20510;-68
2021/12/05 10:37:12;;;;;;;3.30;3.10;;;12.40;84.30;;;;;;4897374;29;20407;-68
2021/12/05 10:39:39;;;;;;;2.63;2.43;;;11.90;83.50;;;;;;4896292;29;20423;-67
2021/12/05 10:42:39;;;;;;;2.43;2.23;;;11.60;85.00;;;;;;4896206;29;20435;-68
2021/12/05 10:45:07;;;;;;;2.67;2.57;;;11.00;86.70;;;;;;4908659;29;20893;-71
2021/12/05 10:47:39;;;;;;;3.63;3.27;;;10.70;88.40;;;;;;4897534;29;20444;-68
2021/12/05 10:50:32;;;;;;;3.03;2.73;;;10.40;89.40;;;;;;4896881;29;20463;-68
2021/12/05 10:53:17;;;;;;;3.30;3.10;;;10.10;90.20;;;;;;4897142;29;20486;-68
2021/12/05 10:55:42;;;;;;;3.77;3.50;;;9.90;91.40;;;;;;4897402;29;20464;-68
2021/12/05 10:58:08;;;;;;;3.37;3.20;;;10.00;91.40;;;;;;4879990;29;20464;-68
2021/12/05 11:00:34;;;;;;;3.77;3.50;;;10.00;91.50;;;;;;4896180;29;20188;-68
2021/12/05 11:03:15;;;;;;;3.40;3.03;;;9.90;92.00;;;;;;4896335;29;20228;-67
2021/12/05 11:05:42;;;;;;;3.83;3.63;;;9.90;92.30;;;;;;4897087;29;20508;-67
2021/12/05 11:08:38;;;;;;;3.63;3.40;;;9.90;92.50;;;;;;4896651;29;20465;-67
2021/12/05 11:11:16;;;;;;;2.73;2.63;;;9.80;92.40;;;;;;4896227;29;20421;-68
2021/12/05 11:13:44;;;;;;;3.00;2.80;;;9.80;92.60;;;;;;4896973;29;20475;-67
2021/12/05 11:16:41;;;;;;;3.13;2.93;;;9.70;92.80;;;;;;4904945;29;20430;-67
2021/12/05 11:19:11;;;;;;;3.37;3.17;;;9.60;92.90;;;;;;4901510;29;20435;-67
2021/12/05 11:21:46;;;;;;;2.60;2.50;;;9.70;93.30;;;;;;4897106;29;20465;-68
2021/12/05 11:24:24;;;;;;;2.83;2.63;;;9.70;93.60;;;;;;4896294;29;20451;-68
2021/12/05 11:27:25;;;;;;;50.00;32.60;;;9.70;93.10;;;;;;4897220;29;20511;-67
2021/12/05 11:30:03;;;;;;;111.73;70.40;;;9.50;93.70;;;;;;4894163;29;20427;-67
2021/12/05 11:32:37;;;;;;;3.83;3.57;;;9.60;94.10;;;;;;4897195;29;20429;-67
2021/12/05 11:35:15;;;;;;;3.10;2.47;;;9.50;93.50;;;;;;4896915;29;20460;-68
2021/12/05 11:38:00;;;;;;;2.40;2.30;;;9.50;93.80;;;;;;4907322;29;20443;-68
2021/12/05 11:40:49;;;;;;;2.83;2.57;;;9.60;93.70;;;;;;4896317;29;20410;-68
2021/12/05 11:43:35;;;;;;;3.10;3.00;;;9.70;93.80;;;;;;4886426;29;20435;-68
2021/12/05 11:46:07;;;;;;;2.13;2.03;;;9.70;93.80;;;;;;4895508;29;20431;-68
2021/12/05 11:48:53;;;;;;;3.70;3.20;;;9.80;94.00;;;;;;4897338;29;20421;-67
2021/12/05 11:51:25;;;;;;;2.23;2.13;;;9.80;93.50;;;;;;4896267;29;20480;-68
2021/12/05 11:53:53;;;;;;;2.60;2.43;;;9.90;93.50;;;;;;4897555;29;20445;-69
2021/12/05 11:56:30;;;;;;;2.40;2.30;;;9.90;93.30;;;;;;4899744;29;20442;-68
2021/12/05 11:59:19;;;;;;;2.80;2.60;;;10.00;92.80;;;;;;4899550;29;20421;-67
2021/12/05 12:01:53;;;;;;;2.43;2.23;;;10.00;92.70;;;;;;4897778;29;20457;-67
2021/12/05 12:04:24;;;;;;;2.37;2.27;;;10.10;92.80;;;;;;4898004;29;20495;-67
2021/12/05 12:07:12;;;;;;;2.30;2.20;;;9.90;92.20;;;;;;4899059;29;20426;-67
2021/12/05 12:09:39;;;;;;;2.50;2.00;;;9.90;92.40;;;;;;4898129;29;20424;-67
2021/12/05 12:12:06;;;;;;;2.37;2.20;;;9.90;92.50;;;;;;4899779;29;20435;-67
2021/12/05 12:14:32;;;;;;;2.50;2.30;;;9.90;92.50;;;;;;4899304;29;20415;-67
2021/12/05 12:16:58;;;;;;;2.90;2.70;;;9.90;92.70;;;;;;4899432;29;20431;-68
2021/12/05 12:19:24;;;;;;;2.30;2.20;;;9.90;92.70;;;;;;4898663;29;20421;-67
2021/12/05 12:21:56;;;;;;;2.47;2.27;;;10.00;92.00;;;;;;4899745;29;20537;-67
2021/12/05 12:24:22;;;;;;;3.33;2.87;;;9.90;92.40;;;;;;4898911;29;20454;-67
2021/12/05 12:26:48;;;;;;;2.70;2.60;;;10.00;91.80;;;;;;4899498;29;20935;-67
2021/12/05 12:29:14;;;;;;;2.90;2.70;;;10.00;92.20;;;;;;4899251;29;20428;-67
2021/12/05 12:31:44;;;;;;;2.23;2.13;;;10.00;92.00;;;;;;4899550;29;20249;-68
2021/12/05 12:34:16;;;;;;;2.57;2.40;;;10.10;92.10;;;;;;4899533;29;20436;-67
2021/12/05 12:36:43;;;;;;;2.40;2.30;;;10.10;91.60;;;;;;4899812;29;20484;-67
2021/12/05 12:39:19;;;;;;;2.10;2.00;;;10.00;91.60;;;;;;4882438;29;20431;-67
2021/12/05 12:42:03;;;;;;;2.27;2.07;;;10.00;91.90;;;;;;4899707;29;20499;-67
2021/12/05 12:44:29;;;;;;;2.80;2.60;;;10.10;92.20;;;;;;4898695;29;20472;-67
2021/12/05 12:47:01;;;;;;;2.50;2.33;;;10.10;92.00;;;;;;4899576;29;20437;-67
2021/12/05 12:49:39;;;;;;;2.47;2.37;;;10.20;91.90;;;;;;4897305;29;20477;-67
2021/12/05 12:52:13;;;;;;;2.20;2.10;;;10.20;92.00;;;;;;4899101;29;20868;-67
2021/12/05 12:54:51;;;;;;;5.23;2.73;;;10.20;91.40;;;;;;4898620;29;20439;-67
2021/12/05 12:57:19;;;;;;;2.30;2.20;;;10.30;91.20;;;;;;4898130;29;20508;-67
2021/12/05 12:59:58;;;;;;;2.40;2.30;;;10.30;91.40;;;;;;4899063;29;20415;-67
2021/12/05 13:02:49;;;;;;;2.27;2.17;;;10.30;91.60;;;;;;4897407;29;20534;-67
2021/12/05 13:11:16;;;;;;;3.40;3.20;;;10.40;91.60;;;;;;4884478;29;20430;-67
2021/12/05 13:13:45;;;;;;;2.50;2.40;;;10.30;91.50;;;;;;4898921;29;20427;-67
2021/12/05 13:16:16;;;;;;;2.17;2.07;;;10.30;91.50;;;;;;4898148;29;20439;-75
2021/12/05 13:18:46;;;;;;;2.33;2.23;;;10.30;91.60;;;;;;4898451;29;20440;-69
2021/12/05 13:21:34;;;;;;;2.50;2.30;;;10.20;90.90;;;;;;4897767;29;20477;-73
2021/12/05 13:24:31;;;;;;;2.43;2.30;;;10.10;91.10;;;;;;4898255;29;20566;-69
2021/12/05 13:27:03;;;;;;;2.20;2.10;;;10.10;91.30;;;;;;4898505;29;20794;-69
2021/12/05 13:29:35;;;;;;;2.73;2.53;;;10.10;91.20;;;;;;4898101;29;20445;-69
2021/12/05 13:32:13;;;;;;;2.60;2.40;;;10.10;91.30;;;;;;4898683;29;20470;-69
2021/12/05 13:34:44;;;;;;;2.10;2.00;;;10.10;91.40;;;;;;4898448;29;20455;-69
2021/12/05 13:37:10;;;;;;;2.33;2.13;;;10.20;91.40;;;;;;4898178;29;20510;-70
2021/12/05 13:39:47;;;;;;;2.20;2.10;;;10.20;91.50;;;;;;4897195;29;20534;-69
2021/12/05 13:42:19;;;;;;;2.37;2.27;;;10.20;91.70;;;;;;4897443;29;20185;-70
2021/12/05 13:45:06;;;;;;;2.50;2.37;;;10.20;91.40;;;;;;4898081;29;20470;-69
2021/12/05 13:47:53;;;;;;;3.20;2.70;;;10.20;91.30;;;;;;4898043;29;20815;-69
2021/12/05 13:50:19;;;;;;;2.50;2.40;;;10.20;91.70;;;;;;4897652;29;20484;-69
2021/12/05 13:53:03;;;;;;;2.27;2.17;;;10.10;91.30;;;;;;4898447;29;20826;-69
2021/12/05 13:55:45;;;;;;;2.00;1.90;;;10.00;91.20;;;;;;4897292;29;20320;-69
2021/12/05 13:58:29;;;;;;;2.40;2.20;;;9.70;92.10;;;;;;4898201;29;20773;-69
2021/12/05 14:00:55;;;;;;;2.40;2.30;;;9.70;92.60;;;;;;4897966;29;20429;-69
2021/12/05 14:03:44;;;;;;;2.10;2.00;;;9.80;92.80;;;;;;4897522;29;20488;-69
2021/12/05 14:07:01;;;;;;;2.60;2.40;;;9.70;92.20;;;;;;4892681;29;21060;-68
2021/12/05 14:09:33;;;;;;;2.70;2.60;;;9.60;92.60;;;;;;4881087;29;20460;-69
2021/12/05 14:12:18;;;;;;;2.80;2.70;;;9.70;92.70;;;;;;4898230;29;20408;-69
2021/12/05 14:14:48;;;;;;;4.00;2.90;;;9.70;92.80;;;;;;4897944;29;20440;-69
2021/12/05 14:17:19;;;;;;;2.60;2.50;;;9.80;92.70;;;;;;4896906;29;20797;-70
2021/12/05 14:19:49;;;;;;;3.00;2.80;;;9.80;92.60;;;;;;4898126;29;20774;-69
2021/12/05 14:22:16;;;;;;;3.17;2.97;;;9.80;92.60;;;;;;4897175;29;20856;-71
2021/12/05 14:24:45;;;;;;;2.70;2.60;;;9.90;92.60;;;;;;4897876;29;20452;-69
2021/12/05 14:27:15;;;;;;;2.37;2.27;;;9.90;92.60;;;;;;4897841;29;20536;-69
2021/12/05 14:29:43;;;;;;;2.57;2.40;;;10.00;92.00;;;;;;4897555;29;20507;-69
2021/12/05 14:32:22;;;;;;;2.70;2.60;;;10.00;92.20;;;;;;4897459;29;20464;-69
2021/12/05 14:34:55;;;;;;;2.87;2.77;;;10.00;92.30;;;;;;4898157;29;20485;-69
2021/12/05 14:37:24;;;;;;;2.60;2.50;;;10.10;92.20;;;;;;4897213;29;20747;-69
2021/12/05 14:39:58;;;;;;;2.83;2.63;;;10.10;91.90;;;;;;4897378;29;20433;-69
2021/12/05 14:42:27;;;;;;;2.87;2.67;;;10.10;91.90;;;;;;4879873;29;20980;-69
2021/12/05 14:44:57;;;;;;;2.80;2.60;;;10.10;91.50;;;;;;4897538;29;20803;-69
2021/12/05 14:47:28;;;;;;;2.30;2.20;;;10.10;91.60;;;;;;4895957;29;20436;-70
2021/12/05 14:50:17;;;;;;;2.20;2.00;;;10.10;91.40;;;;;;4879916;29;20413;-69
2021/12/05 14:52:47;;;;;;;2.20;2.10;;;10.10;91.30;;;;;;4896991;29;20410;-69
2021/12/05 14:55:14;;;;;;;2.40;2.20;;;10.10;91.60;;;;;;4897427;29;20505;-69
2021/12/05 14:57:43;;;;;;;2.40;2.30;;;10.10;91.30;;;;;;4896874;29;20757;-69
2021/12/05 15:00:18;;;;;;;2.60;2.40;;;10.10;91.10;;;;;;4897452;29;20917;-69
2021/12/05 15:02:45;;;;;;;2.67;2.50;;;10.10;90.80;;;;;;4897488;29;21038;-69
2021/12/05 15:05:15;;;;;;;2.27;2.07;;;10.20;90.90;;;;;;4896855;29;20978;-69
2021/12/05 15:07:43;;;;;;;2.30;2.20;;;10.10;90.70;;;;;;4897132;29;20558;-69
2021/12/05 15:10:09;;;;;;;2.40;2.30;;;10.10;90.70;;;;;;4896557;29;20424;-69
2021/12/05 15:12:36;;;;;;;2.43;2.30;;;10.10;91.00;;;;;;4894810;29;20513;-69
2021/12/05 15:15:07;;;;;;;4.30;2.43;;;10.10;91.70;;;;;;4863500;29;20437;-69
2021/12/05 15:17:37;;;;;;;2.50;2.40;;;10.10;91.80;;;;;;4876117;29;20514;-69
2021/12/05 15:20:08;;;;;;;3.10;2.90;;;10.10;91.90;;;;;;4896615;29;20935;-69
2021/12/05 15:22:35;;;;;;;2.77;2.60;;;10.10;91.50;;;;;;4896577;29;20414;-69
2021/12/05 15:25:05;;;;;;;2.70;2.50;;;10.10;91.30;;;;;;4896860;29;20459;-69
2021/12/05 15:27:33;;;;;;;3.17;2.87;;;10.10;91.60;;;;;;4880291;29;20828;-69
2021/12/05 15:30:07;;;;;;;2.60;2.50;;;10.10;91.30;;;;;;4900017;29;20430;-69
2021/12/05 15:32:33;;;;;;;2.70;2.50;;;10.10;91.20;;;;;;4899385;29;20519;-71
2021/12/05 15:35:11;;;;;;;4.50;4.10;;;10.10;91.50;;;;;;4902753;29;20583;-69
2021/12/05 15:37:37;;;;;;;4.20;3.90;;;10.10;91.90;;;;;;4900394;29;20506;-69
2021/12/05 15:40:05;;;;;;;3.30;3.00;;;10.10;91.50;;;;;;4900933;29;20430;-69
2021/12/05 15:42:34;;;;;;;2.83;2.60;;;10.10;92.20;;;;;;4900164;29;20414;-69
2021/12/05 15:45:04;;;;;;;2.73;2.63;;;10.10;91.60;;;;;;4900677;29;20522;-69
2021/12/05 15:47:34;;;;;;;3.00;2.77;;;10.10;91.10;;;;;;4899304;29;20444;-69
2021/12/05 15:50:16;;;;;;;3.17;2.90;;;10.10;92.10;;;;;;4900141;29;20526;-69
2021/12/05 15:52:55;;;;;;;3.40;3.20;;;10.10;92.20;;;;;;4899539;29;20511;-69
2021/12/05 15:55:34;;;;;;;3.30;3.10;;;10.00;92.60;;;;;;4899930;29;20405;-69
2021/12/05 15:58:08;;;;;;;4.93;4.43;;;10.00;92.40;;;;;;4900570;29;20400;-69
2021/12/05 16:00:46;;;;;;;3.73;3.40;;;9.90;92.60;;;;;;4899596;29;20434;-69
2021/12/05 16:03:18;;;;;;;3.10;2.90;;;9.90;93.00;;;;;;4899999;29;20473;-68
2021/12/05 16:05:46;;;;;;;3.20;3.00;;;9.90;93.00;;;;;;4900366;29;20453;-69
2021/12/05 16:08:14;;;;;;;2.87;2.70;;;9.80;92.60;;;;;;4899937;29;20456;-68
2021/12/05 16:10:46;;;;;;;2.90;2.70;;;9.90;92.50;;;;;;4899542;29;20419;-68
2021/12/05 16:13:32;;;;;;;3.27;3.00;;;9.80;92.60;;;;;;4900053;29;20434;-68
2021/12/05 16:16:12;;;;;;;3.10;2.90;;;9.80;92.80;;;;;;4884694;29;20888;-68
2021/12/05 16:18:40;;;;;;;3.50;3.30;;;9.70;92.70;;;;;;4899591;29;20420;-70
2021/12/05 16:21:36;;;;;;;3.50;3.20;;;9.70;93.10;;;;;;4900083;29;20822;-70
2021/12/05 16:24:08;;;;;;;4.03;3.73;;;9.70;93.50;;;;;;4898678;29;20491;-69
2021/12/05 16:26:35;;;;;;;5.63;4.60;;;9.70;93.90;;;;;;4885380;29;20451;-68
2021/12/05 16:29:05;;;;;;;6.30;5.70;;;9.70;94.10;;;;;;4864422;29;20790;-69
2021/12/05 16:31:46;;;;;;;5.50;5.00;;;9.70;94.30;;;;;;4898342;29;20447;-69
2021/12/05 16:34:17;;;;;;;4.80;4.50;;;9.60;94.00;;;;;;4899361;29;20438;-68
2021/12/05 16:36:52;;;;;;;765.50;487.77;;;9.60;94.30;;;;;;4882490;29;20384;-69
2021/12/05 16:39:29;;;;;;;47.17;32.70;;;9.60;94.90;;;;;;4898931;29;20920;-69
2021/12/05 16:41:58;;;;;;;7.53;6.83;;;9.60;95.50;;;;;;4899363;29;20401;-68
2021/12/05 16:44:27;;;;;;;8.30;7.60;;;9.40;96.30;;;;;;4899119;29;20987;-69
2021/12/05 16:46:57;;;;;;;5.57;5.07;;;9.40;97.30;;;;;;4899450;29;20916;-68
2021/12/05 16:49:27;;;;;;;4.43;4.13;;;9.30;97.10;;;;;;4898825;29;20432;-70
2021/12/05 16:51:54;;;;;;;3.50;3.37;;;9.20;95.90;;;;;;4899794;29;20411;-69
2021/12/05 16:54:30;;;;;;;5.23;4.93;;;9.00;96.00;;;;;;4898597;29;20802;-69
2021/12/05 16:57:01;;;;;;;5.13;4.80;;;8.90;97.70;;;;;;4897475;29;20439;-69
2021/12/05 16:59:32;;;;;;;5.23;4.80;;;9.10;98.00;;;;;;4897823;29;20440;-70
2021/12/05 17:02:27;;;;;;;5.40;4.90;;;9.10;97.90;;;;;;4898479;29;20520;-69
2021/12/05 17:04:59;;;;;;;7.53;5.50;;;9.20;98.20;;;;;;4878924;29;20472;-69
2021/12/05 17:11:08;;;;;;;6.23;5.83;;;9.20;98.60;;;;;;4879050;29;20447;-69
2021/12/05 17:13:38;;;;;;;5.77;5.37;;;9.20;98.90;;;;;;4879693;29;20479;-69
2021/12/05 17:16:27;;;;;;;5.80;5.37;;;9.20;98.90;;;;;;4880215;29;20432;-69
2021/12/05 17:18:53;;;;;;;4.83;4.43;;;9.30;98.90;;;;;;4879411;29;20444;-69
2021/12/05 17:21:29;;;;;;;5.10;4.80;;;9.30;98.10;;;;;;4878887;29;20428;-70
2021/12/05 17:23:59;;;;;;;5.30;4.90;;;9.30;98.00;;;;;;4878680;29;20466;-69
2021/12/05 17:26:35;;;;;;;5.53;5.03;;;9.30;98.10;;;;;;4879036;29;20456;-73
2021/12/05 17:29:04;;;;;;;5.70;5.20;;;9.30;98.30;;;;;;4878875;29;20431;-68
2021/12/05 17:31:37;;;;;;;5.27;4.87;;;9.30;98.40;;;;;;4877632;29;20474;-70
2021/12/05 17:34:08;;;;;;;5.77;5.27;;;9.30;98.70;;;;;;4880198;29;20437;-70
2021/12/05 17:36:37;;;;;;;5.50;5.10;;;9.30;99.10;;;;;;4883055;29;20430;-70
2021/12/05 17:39:13;;;;;;;5.43;5.10;;;9.30;99.70;;;;;;4879323;29;20429;-69
2021/12/05 17:41:41;;;;;;;5.90;5.50;;;9.30;99.90;;;;;;4878952;29;20406;-70
2021/12/05 17:44:09;;;;;;;5.30;4.93;;;9.30;99.90;;;;;;4879518;29;20466;-70
2021/12/05 17:46:37;;;;;;;5.33;4.90;;;9.30;99.90;;;;;;4878507;29;20436;-70
2021/12/05 17:49:08;;;;;;;6.67;5.13;;;9.20;99.90;;;;;;4880825;29;20802;-71
2021/12/05 17:51:39;;;;;;;5.43;5.03;;;9.20;99.90;;;;;;4877361;29;20948;-70
2021/12/05 17:54:12;;;;;;;5.43;4.43;;;9.20;99.90;;;;;;4878768;29;20436;-71
2021/12/05 17:56:42;;;;;;;5.37;4.80;;;9.20;99.90;;;;;;4878081;29;20433;-70
2021/12/05 17:59:46;;;;;;;6.33;5.70;;;9.10;99.90;;;;;;4878811;29;20436;-72
2021/12/05 18:04:49;;;;;;;68.63;40.83;;;9.10;99.90;;;;;;4896895;29;20478;-69
2021/12/05 18:07:18;;;;;;;8.33;7.53;;;9.20;99.90;;;;;;4897692;29;20467;-68
2021/12/05 18:09:44;;;;;;;6.60;6.10;;;9.20;99.90;;;;;;4897603;29;20412;-68
2021/12/05 18:12:19;;;;;;;7.00;6.50;;;9.20;99.90;;;;;;4897809;29;20487;-68
2021/12/05 18:14:45;;;;;;;6.93;6.40;;;9.20;99.90;;;;;;4896772;29;20431;-68
2021/12/05 18:17:11;;;;;;;7.00;6.33;;;9.20;99.90;;;;;;4897799;29;20578;-68
2021/12/05 18:19:38;;;;;;;6.77;6.23;;;9.20;99.90;;;;;;4897352;29;20504;-68
2021/12/05 18:22:04;;;;;;;7.80;6.77;;;9.10;99.90;;;;;;4897499;29;20428;-68
2021/12/05 18:24:31;;;;;;;6.47;5.97;;;9.20;99.90;;;;;;4897233;29;20459;-68
2021/12/05 18:26:57;;;;;;;6.97;6.30;;;9.10;99.90;;;;;;4897873;29;20921;-68
2021/12/05 18:29:23;;;;;;;4.83;4.50;;;9.10;99.90;;;;;;4897130;29;20882;-69
2021/12/05 18:31:50;;;;;;;5.10;4.70;;;9.10;99.90;;;;;;4896745;29;20784;-68
2021/12/05 18:34:21;;;;;;;4.60;4.20;;;9.10;99.90;;;;;;4880966;29;20454;-68
2021/12/05 18:36:48;;;;;;;4.50;4.20;;;9.20;99.90;;;;;;4897209;29;20415;-68
2021/12/05 18:39:21;;;;;;;4.07;3.77;;;9.10;99.90;;;;;;4897422;29;20431;-68
2021/12/05 18:41:49;;;;;;;4.53;4.23;;;9.00;99.90;;;;;;4896872;29;20967;-68
2021/12/05 18:44:18;;;;;;;4.53;4.00;;;9.00;99.90;;;;;;4897048;29;20460;-69
2021/12/05 18:46:46;;;;;;;6.13;5.30;;;9.00;99.90;;;;;;4896011;29;20495;-69
2021/12/05 18:49:12;;;;;;;7.10;6.40;;;9.00;99.90;;;;;;4897293;29;20487;-68